Khok Kloi, Thailand
Current Conditions -  °F | °C
As of 3:30 AM on Tuesday 25 Nov 2014 (Local Time) from VTSP Reporting Station
Broken Clouds Broken Clouds  
Wind Chill: 77°   Ceiling: 30000
Heat Index: 78°   Visibility: 5mi
Dew Point: 75°   Wind: 2mph
Humidity: 94%   Direction: NA
Pressure: 29.8"   Gusts: NA
Location:  8.28°N, 98.31°E
Report Text: VTSP 242030Z VRB02KT 8000 FEW020 BKN300 25/24 Q1009 A2981NOSIG
Loading
Personal Weather Stations






























Interactive Weather Map New forecast layout! Learn more

10-Day Weather Forecast

Advertisements
Track Severe Weather on mobile